AirNav   Jet Aviation Boston
 
 1586 users online  

H66 Nowata Municipal Airport
Nowata, Oklahoma, USA

GOING TO NOWATA?


FAA INFORMATION EFFECTIVE 29 MARCH 2018

Location

FAA Identifier: H66
Lat/Long: 36-43-15.3200N / 095-37-30.9210W
36-43.255333N / 095-37.515350W
36.7209222 / -95.6252558
(estimated)
Elevation: 679 ft. / 207.0 m (surveyed)
Variation: 06E (1985)
From city: 2 miles NE of NOWATA, OK
Time zone: UTC -5 (UTC -6 during Standard Time)
Zip code: 74048

Airport Operations

Airport use: Open to the public
Activation date: 09/1945
Control tower: no
ARTCC: KANSAS CITY CENTER
FSS: MC ALESTER FLIGHT SERVICE STATION
NOTAMs facility: MLC (NOTAM-D service available)
Attendance: UNATNDD
Wind indicator: yes
Segmented circle: yes

Airport Communications

CTAF: 122.9
WX ASOS at BVO (19 nm W): 132.675 (918-336-2070)

Nearby radio navigation aids

VOR radial/distance  VOR name  Freq  Var
BVOr102/20.1BARTLESVILLE VOR/DME117.9008E
TULr006/32.4TULSA VORTAC114.4008E
OSWr210/33.1OSWEGO VOR/DME117.6008E

 
NDB name  Hdg/Dist  Freq  Var  ID
COFFEYVILLE182/22.521205ECFV -.-. ..-. ...-

Airport Services

Airframe service: NONE
Powerplant service: NONE
Bottled oxygen: NONE
Bulk oxygen: NONE

Runway Information

Runway 17/35

Dimensions: 2500 x 45 ft. / 762 x 14 m
Surface: asphalt, in good condition
Weight bearing capacity: 
Single wheel: 4.0
RUNWAY 17  RUNWAY 35
Gradient: 0.1%0.1%
Traffic pattern: leftleft
Markings: nonenone
Obstructions: none36 ft. trees, 320 ft. from runway, 37 ft. left of centerline, 3:1 slope to clear
20 FT TREES AT RWY END 110 FT LEFT AND RIGHT OF CENTERLINE.

Runway 5/23

Dimensions: 2440 x 45 ft. / 744 x 14 m
Surface: turf/L
RY UNIDENTIFIABLE; RY EXTREMELY ROUGH & COVERED WITH TALL GRASS.
RUNWAY 5  RUNWAY 23
Traffic pattern: leftleft
Obstructions: 40 ft. pline, 325 ft. from runway, 8:1 slope to clear40 ft. trees, 700 ft. from runway, 17:1 slope to clear

Airport Ownership and Management from official FAA records

Ownership: Publicly-owned
Owner: CITY OF NOWATA
701 E MODOC
NOWATA, OK 74048
Phone 918-273-3538
Manager: CHARLIE SPENCER
701 E MODOC
NOWATA, OK 74048
Phone (918) 273-3538
CITY MANAGER.

Airport Operational Statistics

Aircraft based on the field: 7
Single engine airplanes: 7
    
Aircraft operations: avg 62/month *
75% local general aviation
25% transient general aviation
* for 12-month period ending 13 October 2017

Additional Remarks

-2 FT DITCH AT RY 23 THLD; -12 FT DITCH 220 FT FM RY 35 THLD.

Instrument Procedures

There are no published instrument procedures at H66.

Some nearby airports with instrument procedures:

KBVO - Bartlesville Municipal Airport (19 nm W)
KCFV - Coffeyville Municipal Airport (23 nm N)
KGCM - Claremore Regional Airport (27 nm S)
KIDP - Independence Municipal Airport (27 nm N)
1K8 - South Grand Lake Regional Airport (31 nm E)
 
Loc | Ops | Rwys | IFR | FBO | Links
Com | Nav | Svcs | Stats | Notes

AirNav Hotels Sweepstakes
 
Area around H66 (Nowata Municipal Airport)
 
Road maps at: MapQuest Bing Google
 
Aerial photo
WARNING: Photo may not be current or correct
Aerial photo of H66 (Nowata Municipal Airport)
Photo taken 22-Apr-2006

Do you have a better or more recent aerial photo of Nowata Municipal Airport that you would like to share? If so, please send us your photo.

 
Sectional chart

 
Airport distance calculator
Flying to Nowata Municipal Airport? Find the distance to fly.

From to H66

Sunrise and sunset
Times for 25-Apr-2018
 Local
(UTC-5)
 Zulu
(UTC)
Morning civil twilight06:0911:09
Sunrise06:3711:37
Sunset20:0401:04
Evening civil twilight20:3201:32

Current date and time
Zulu (UTC)  25-Apr-2018 14:43:36
Local (UTC-5)  25-Apr-2018 09:43:36
 
METAR
KBVO 
19nm W 
251353Z AUTO 00000KT 6SM -RA BR OVC013 11/10 A3019 RMK AO2 SLP218 P0003 T01110100
KCFV 
22nm N 
251352Z AUTO 34007KT 7SM -RA FEW012 BKN075 OVC090 11/11 A3016 RMK AO2 SLP212 P0001 T01110106
KGCM 
26nm S 
251415Z AUTO 00000KT 5SM RA OVC060 11/10 A3020 RMK AO2 P0001
KIDP 
27nm N 
251415Z AUTO 35004KT 7SM -RA SCT006 BKN055 OVC070 11/10 A3016 RMK AO2 P0001 T01100101
KTUL 
34nm S 
251404Z 00000KT 2 1/2SM -RA BR BKN060 OVC070 12/10 A3017 RMK AO2 PRESFR P0003 T01170100
KPPF 
37nm N 
251352Z AUTO 33004KT 5SM -RA BR OVC060 11/11 A3017 RMK AO2 SLP213 P0004 T01110106
TAF
KBVO 
19nm W 
251134Z 2512/2612 34010KT 6SM -SHRA OVC025 FM251500 35010KT 5SM -SHRA BR OVC007 FM252100 35007KT 6SM -SHRA OVC012 FM260200 33007KT P6SM OVC012
NOTAMs
Click for the latest NOTAMs
NOTAMs are issued by the DoD/FAA and will open in a separate window not controlled by AirNav.

 

 
 

Would you like to see your business listed on this page?

 If your business provides an interesting product or service to pilots, flight crews, aircraft, or users of the Nowata Municipal Airport, you should consider listing it here.  To start the listing process, click on the button below
 
Add a business
 

Other Pages about Nowata Municipal Airport

Update a link
 
Copyright © AirNav, LLC. All rights reserved. Privacy Policy  Contact